Terminal Aerodrome Forecast
Issued by NWS Bismarck, ND

Home | Current Version | Previous Version | Graphics & Text | Print | Product List | Glossary On
Versions: 1 2 3 4 5 6 7 8 9 10 11 12 13 14 15 16 17 18 19 20 21 22
000
FTUS43 KBIS 230852 RRA
TAFBIS
TAF
KBIS 230852Z 2309/2406 27005KT P6SM SCT017 OVC025
      TEMPO 2309/2313 OVC017
     FM231300 23003KT P6SM OVC012
     FM231800 VRB03KT P6SM OVC015
     FM232300 05005KT P6SM OVC010=

USA.gov is the U.S. government's official web portal to all federal, state and local government web resources and services.